Time;durP1;ratioP1;P1;durP2;ratioP2;P2;SDS_P1;SDS_P2;PMS_P1;PMS_P2;Temp;Humidity;BMP_temperature;BMP_pressure;BME280_temperature;BME280_humidity;BME280_pressure;Samples;Min_cycle;Max_cycle;Signal;HPM_P1;HPM_P2
2023/04/25 00:01:18;;;;;;;0.98;0.88;;;7.80;99.90;;;7.20;100.00;96639.50;5006514;28;20030;-38
2023/04/25 00:03:45;;;;;;;0.93;0.90;;;7.80;99.90;;;7.19;100.00;96636.00;5001464;28;20053;-38
2023/04/25 00:06:11;;;;;;;1.30;1.00;;;7.80;99.90;;;7.16;100.00;96632.63;5007153;28;20123;-38
2023/04/25 00:08:36;;;;;;;1.58;0.95;;;7.80;99.90;;;7.17;100.00;96632.56;5001505;28;20440;-38
2023/04/25 00:11:02;;;;;;;1.10;0.90;;;7.70;99.90;;;7.15;100.00;96630.94;4997043;28;20570;-38
2023/04/25 00:13:28;;;;;;;1.95;1.10;;;7.70;99.90;;;7.16;100.00;96627.38;5015633;28;20124;-38
2023/04/25 00:15:54;;;;;;;2.92;1.15;;;7.70;99.90;;;7.15;100.00;96630.94;5010586;28;21702;-38
2023/04/25 00:18:20;;;;;;;1.67;1.08;;;7.70;99.90;;;7.14;100.00;96621.34;5008404;28;20041;-38
2023/04/25 00:20:46;;;;;;;2.53;1.20;;;7.70;99.90;;;7.11;100.00;96624.09;5011159;28;20090;-40
2023/04/25 00:23:19;;;;;;;1.70;1.00;;;7.70;99.90;;;7.10;100.00;96622.38;5009468;28;20036;-38
2023/04/25 00:25:46;;;;;;;1.23;1.00;;;7.70;99.90;;;7.08;100.00;96620.63;5000846;28;20038;-38
2023/04/25 00:28:12;;;;;;;1.50;0.82;;;7.70;99.90;;;7.08;100.00;96623.25;5001120;28;20041;-39
2023/04/25 00:30:39;;;;;;;1.13;1.02;;;7.60;99.90;;;7.06;100.00;96621.63;5002984;28;20025;-39
2023/04/25 00:33:05;;;;;;;1.77;0.98;;;7.60;99.90;;;6.97;100.00;96609.69;5006286;28;20029;-38
2023/04/25 00:35:31;;;;;;;1.42;1.00;;;7.60;99.90;;;7.04;100.00;96620.81;5005278;28;20164;-38
2023/04/25 00:37:57;;;;;;;1.70;1.08;;;7.60;99.90;;;7.02;100.00;96613.00;5003073;28;20041;-38
2023/04/25 00:40:22;;;;;;;1.50;1.20;;;7.60;99.90;;;7.02;100.00;96615.63;5016880;28;20381;-37
2023/04/25 00:42:49;;;;;;;3.08;1.33;;;7.60;99.90;;;6.98;100.00;96607.91;4999821;28;20033;-38
2023/04/25 00:45:15;;;;;;;2.80;1.20;;;7.60;99.90;;;7.00;100.00;96601.72;5000600;28;20446;-38
2023/04/25 00:47:41;;;;;;;4.35;1.38;;;7.60;99.90;;;6.88;100.00;96595.13;5008846;28;20523;-39
2023/04/25 00:50:09;;;;;;;1.70;1.23;;;7.60;99.90;;;6.97;100.00;96612.31;5001147;28;20030;-38
2023/04/25 00:52:35;;;;;;;1.40;0.98;;;7.50;99.90;;;6.96;100.00;96601.88;5005711;28;20607;-39
2023/04/25 00:55:01;;;;;;;1.67;1.30;;;7.50;99.90;;;6.92;100.00;96601.13;5001480;28;21461;-38
2023/04/25 00:57:28;;;;;;;1.48;1.08;;;7.50;99.90;;;6.85;100.00;96589.16;5004838;28;20038;-38
2023/04/25 00:59:54;;;;;;;1.95;1.05;;;7.50;99.90;;;6.94;100.00;96599.31;5000947;28;20080;-38
2023/04/25 01:02:20;;;;;;;2.08;1.40;;;7.50;99.90;;;6.91;100.00;96604.66;5007732;28;20088;-38
2023/04/25 01:04:47;;;;;;;3.10;1.20;;;7.50;99.90;;;6.91;100.00;96604.66;5006991;28;20033;-38
2023/04/25 01:07:13;;;;;;;1.40;0.98;;;7.50;99.90;;;6.93;100.00;96596.72;5010807;28;20064;-37
2023/04/25 01:09:39;;;;;;;1.40;1.20;;;7.50;99.90;;;6.93;100.00;96595.00;5009828;28;20033;-39
2023/04/25 01:12:05;;;;;;;1.38;1.00;;;7.50;99.90;;;6.84;100.00;96572.56;5017005;28;20039;-39
2023/04/25 01:14:31;;;;;;;1.55;1.15;;;7.50;99.90;;;6.99;100.00;96588.66;5006043;28;20030;-38
2023/04/25 01:16:58;;;;;;;1.90;1.30;;;7.50;99.90;;;6.99;100.00;96594.75;5008786;28;20031;-38
2023/04/25 01:19:24;;;;;;;2.55;1.35;;;7.50;99.90;;;6.96;100.00;96583.53;5008002;28;20075;-38
2023/04/25 01:21:50;;;;;;;2.13;1.30;;;7.50;99.90;;;7.01;100.00;96592.09;4999392;28;20037;-39
2023/04/25 01:24:16;;;;;;;2.58;1.40;;;7.60;99.90;;;6.97;100.00;96586.09;5010173;28;20044;-38
2023/04/25 01:26:49;;;;;;;2.42;1.35;;;7.50;99.90;;;6.89;100.00;96585.50;5017162;28;20026;-38
2023/04/25 01:29:17;;;;;;;2.45;1.20;;;7.50;99.90;;;6.83;100.00;96577.88;5006768;28;20029;-38
2023/04/25 01:31:44;;;;;;;2.85;1.50;;;7.40;99.90;;;6.75;100.00;96572.91;5012138;28;20428;-38
2023/04/25 01:34:11;;;;;;;2.63;1.40;;;7.40;99.90;;;6.73;100.00;96574.72;5014677;28;20025;-39
2023/04/25 01:36:36;;;;;;;3.42;1.58;;;7.30;99.90;;;6.72;100.00;96570.38;5006173;28;20083;-38
2023/04/25 01:39:02;;;;;;;4.00;1.48;;;7.30;99.90;;;6.70;100.00;96577.44;5010564;28;20099;-38
2023/04/25 01:41:28;;;;;;;2.55;1.40;;;7.30;99.90;;;6.75;100.00;96582.50;4994179;28;20056;-38
2023/04/25 01:43:54;;;;;;;1.55;1.30;;;7.30;99.90;;;6.77;100.00;96584.19;5008138;28;21107;-38
2023/04/25 01:46:20;;;;;;;2.05;1.42;;;7.30;99.90;;;6.76;100.00;96586.84;5006409;28;20037;-38
2023/04/25 01:48:46;;;;;;;2.42;1.60;;;7.30;99.90;;;6.77;100.00;96588.56;5012782;28;20041;-37
2023/04/25 01:51:12;;;;;;;1.83;1.40;;;7.30;99.90;;;6.78;100.00;96579.78;5014049;28;20052;-38
2023/04/25 01:53:39;;;;;;;1.83;1.40;;;7.40;99.90;;;6.73;100.00;96568.59;5016527;28;20615;-38
2023/04/25 01:56:05;;;;;;;2.00;1.52;;;7.40;99.90;;;6.79;100.00;96574.50;5012356;28;20040;-39
2023/04/25 01:58:31;;;;;;;2.97;1.70;;;7.40;99.90;;;6.71;100.00;96559.94;5015490;28;20128;-38
2023/04/25 02:00:57;;;;;;;2.45;1.38;;;7.40;99.90;;;6.81;100.00;96583.16;5014479;28;20033;-38
2023/04/25 02:03:23;;;;;;;1.85;1.20;;;7.40;99.90;;;6.83;100.00;96572.63;5016933;28;20448;-38
2023/04/25 02:05:49;;;;;;;4.80;1.35;;;7.40;99.90;;;6.79;100.00;96573.66;5013917;28;20133;-37
2023/04/25 02:08:16;;;;;;;4.70;1.52;;;7.40;99.90;;;6.85;100.00;96578.66;5019123;28;20057;-37
2023/04/25 02:10:41;;;;;;;1.90;1.55;;;7.40;99.90;;;6.80;100.00;96564.84;5016041;28;20057;-39
2023/04/25 02:13:07;;;;;;;3.05;1.55;;;7.50;99.90;;;6.82;100.00;96582.25;5012796;28;20668;-40
2023/04/25 02:15:33;;;;;;;2.03;1.35;;;7.50;99.90;;;6.84;100.00;96577.81;5017157;28;20061;-38
2023/04/25 02:18:00;;;;;;;2.65;1.40;;;7.40;99.90;;;6.82;100.00;96573.50;5021746;28;20017;-39
2023/04/25 02:20:26;;;;;;;2.25;1.30;;;7.40;99.90;;;6.68;100.00;96564.38;5019376;28;20025;-39
2023/04/25 02:22:52;;;;;;;4.25;1.50;;;7.30;99.90;;;6.68;100.00;96574.88;5013799;28;20087;-39
2023/04/25 02:25:19;;;;;;;2.83;1.42;;;7.20;99.90;;;6.60;100.00;96579.50;5003252;28;20033;-39
2023/04/25 02:27:46;;;;;;;2.30;1.30;;;7.20;99.90;;;6.56;100.00;96569.19;5015161;28;20338;-38
2023/04/25 02:30:12;;;;;;;2.80;1.80;;;7.10;99.90;;;6.49;100.00;96568.53;5015406;28;20120;-39
2023/04/25 02:32:39;;;;;;;1.80;1.27;;;7.00;99.90;;;6.26;100.00;96544.00;5010154;28;20462;-39
2023/04/25 02:35:06;;;;;;;1.83;1.38;;;6.90;99.90;;;6.34;100.00;96558.59;5017133;28;20036;-38
2023/04/25 02:37:34;;;;;;;2.17;1.40;;;6.90;99.90;;;6.27;100.00;96560.56;5013160;28;20051;-39
2023/04/25 02:40:00;;;;;;;1.73;1.45;;;6.80;99.90;;;6.13;100.00;96534.84;5009489;28;20071;-39
2023/04/25 02:42:26;;;;;;;1.67;1.40;;;6.90;99.90;;;6.24;100.00;96543.16;5015223;28;20033;-38
2023/04/25 02:44:52;;;;;;;4.10;1.58;;;6.90;99.90;;;6.41;100.00;96553.09;5009873;28;20512;-39
2023/04/25 02:47:18;;;;;;;1.65;1.45;;;7.00;99.90;;;6.36;100.00;96535.84;5014302;28;20029;-39
2023/04/25 02:49:45;;;;;;;2.45;1.65;;;7.00;99.90;;;6.47;100.00;96544.16;5012195;28;20039;-38
2023/04/25 02:52:11;;;;;;;3.60;1.67;;;7.10;99.90;;;6.54;100.00;96544.81;5014851;28;20068;-39
2023/04/25 02:54:38;;;;;;;2.28;1.50;;;7.10;99.90;;;6.49;100.00;96545.81;4990547;28;20121;-38
2023/04/25 02:57:04;;;;;;;2.65;1.52;;;7.10;99.90;;;6.47;100.00;96542.41;5005381;28;20025;-39
2023/04/25 02:59:30;;;;;;;3.70;1.65;;;7.10;99.90;;;6.47;100.00;96554.66;5006007;28;20033;-37
2023/04/25 03:01:55;;;;;;;2.83;1.70;;;7.10;99.90;;;6.50;100.00;96549.31;5011409;28;20041;-38
2023/04/25 03:04:23;;;;;;;1.65;1.35;;;7.10;99.90;;;6.48;100.00;96556.38;5017016;28;20032;-37
2023/04/25 03:06:50;;;;;;;2.72;1.50;;;7.10;99.90;;;6.52;100.00;96552.72;5011051;28;20034;-37
2023/04/25 03:09:15;;;;;;;2.03;1.50;;;7.10;99.90;;;6.52;100.00;96554.50;5015482;28;20034;-38
2023/04/25 03:11:42;;;;;;;2.28;1.70;;;7.10;99.90;;;6.52;100.00;96552.72;5013244;28;20551;-39
2023/04/25 03:14:07;;;;;;;2.50;1.77;;;7.10;99.90;;;6.50;100.00;96549.31;5014431;28;20064;-38
2023/04/25 03:16:33;;;;;;;2.25;1.70;;;7.20;99.90;;;6.52;100.00;96547.50;5000411;28;20305;-39
2023/04/25 03:18:59;;;;;;;3.65;1.92;;;7.10;99.90;;;6.49;100.00;96547.59;5017129;28;20132;-37
2023/04/25 03:21:26;;;;;;;2.95;1.60;;;7.10;99.90;;;6.41;100.00;96526.91;5013797;28;20076;-38
2023/04/25 03:23:52;;;;;;;3.83;1.90;;;7.10;99.90;;;6.46;100.00;96542.44;5017177;28;20056;-38
2023/04/25 03:26:17;;;;;;;2.35;1.65;;;7.10;99.90;;;6.40;100.00;96530.41;5012270;28;20051;-38
2023/04/25 03:28:43;;;;;;;2.55;1.55;;;7.00;99.90;;;6.40;100.00;96538.28;5015866;28;20371;-37
2023/04/25 03:31:09;;;;;;;1.50;1.38;;;7.00;99.90;;;6.43;100.00;96543.41;5008099;28;20091;-39
2023/04/25 03:33:34;;;;;;;3.03;1.65;;;7.00;99.90;;;6.39;100.00;96544.44;5014410;28;20041;-39
2023/04/25 03:36:00;;;;;;;2.05;1.50;;;7.00;99.90;;;6.38;100.00;96547.09;5012346;28;20038;-38
2023/04/25 03:38:26;;;;;;;2.15;1.55;;;7.00;99.90;;;6.39;100.00;96546.19;5002487;28;20029;-38
2023/04/25 03:40:52;;;;;;;2.65;1.60;;;6.90;99.90;;;6.42;100.00;96551.31;5007259;28;20048;-37
2023/04/25 03:43:18;;;;;;;2.65;1.63;;;7.00;99.90;;;6.43;100.00;96542.56;5014709;28;20029;-39
2023/04/25 03:45:44;;;;;;;4.63;1.80;;;7.00;99.90;;;6.45;100.00;96543.38;5002622;28;20038;-38
2023/04/25 03:48:09;;;;;;;2.85;1.70;;;7.00;99.90;;;6.48;100.00;96546.75;5008848;28;20034;-38
2023/04/25 03:50:35;;;;;;;2.75;1.48;;;7.10;99.90;;;6.49;100.00;96547.59;5015914;28;20021;-38
2023/04/25 03:53:01;;;;;;;2.55;1.50;;;7.10;99.90;;;6.47;100.00;96547.63;5015716;28;20574;-38
2023/04/25 03:55:26;;;;;;;2.13;1.67;;;7.10;99.90;;;6.47;100.00;96539.78;5010089;28;20036;-39
2023/04/25 03:57:52;;;;;;;2.22;1.50;;;7.10;99.90;;;6.50;100.00;96542.31;5012778;28;20485;-38
2023/04/25 04:00:18;;;;;;;4.68;1.95;;;7.10;99.90;;;6.47;100.00;96531.06;5017089;28;20485;-38
2023/04/25 04:02:44;;;;;;;2.80;1.60;;;7.10;99.90;;;6.20;100.00;96510.16;5011123;28;20041;-38
2023/04/25 04:05:09;;;;;;;2.17;1.63;;;7.00;99.90;;;6.25;100.00;96530.97;5017971;28;20033;-39
2023/04/25 04:07:39;;;;;;;2.45;1.42;;;6.90;99.90;;;6.27;100.00;96540.47;5011709;28;20048;-40
2023/04/25 04:10:07;;;;;;;2.47;1.60;;;6.90;99.90;;;6.25;100.00;96537.03;5013766;28;20030;-39
2023/04/25 04:12:33;;;;;;;2.90;1.60;;;6.80;99.90;;;6.23;100.00;96538.00;5011887;28;20079;-38
2023/04/25 04:14:59;;;;;;;3.67;1.80;;;6.80;99.90;;;6.22;100.00;96528.44;4998032;28;20686;-38
2023/04/25 04:17:25;;;;;;;2.38;1.85;;;6.80;99.90;;;6.17;100.00;96536.44;5005414;28;20021;-41
2023/04/25 04:19:50;;;;;;;4.45;1.90;;;6.80;99.90;;;6.13;100.00;96542.69;5009907;28;20033;-40
2023/04/25 04:22:16;;;;;;;2.63;1.90;;;6.80;99.90;;;6.17;100.00;96540.81;5004014;28;20040;-40
2023/04/25 04:24:46;;;;;;;5.55;2.00;;;6.80;99.90;;;6.15;100.00;96553.13;5012307;28;20090;-38
2023/04/25 04:27:12;;;;;;;4.25;2.20;;;6.80;99.90;;;6.14;100.00;96538.28;5004779;28;20047;-40
2023/04/25 04:29:38;;;;;;;2.45;1.83;;;6.70;99.90;;;6.09;100.00;96541.94;5010431;28;20040;-38
2023/04/25 04:32:04;;;;;;;3.58;1.83;;;6.70;99.90;;;6.05;100.00;96549.94;5009006;28;20103;-38
2023/04/25 04:34:30;;;;;;;2.75;2.22;;;6.70;99.90;;;6.06;100.00;96543.78;5016966;28;20037;-40
2023/04/25 04:36:57;;;;;;;3.15;2.10;;;6.60;99.90;;;6.13;100.00;96561.00;5023684;28;20029;-39
2023/04/25 04:39:22;;;;;;;3.85;1.92;;;6.70;99.90;;;6.23;100.00;96562.44;5005823;28;20036;-38
2023/04/25 04:41:48;;;;;;;4.60;2.30;;;6.80;99.90;;;6.33;100.00;96567.34;5001869;28;20373;-38
2023/04/25 04:44:15;;;;;;;4.05;2.42;;;6.90;99.90;;;6.45;100.00;96572.19;5010455;28;20385;-39
2023/04/25 04:46:41;;;;;;;2.83;2.08;;;7.00;99.90;;;6.50;100.00;96560.63;4996212;28;20041;-38
2023/04/25 04:49:12;;;;;;;3.75;2.08;;;7.10;99.90;;;6.61;100.00;96559.44;5001580;28;20121;-38
2023/04/25 04:51:38;;;;;;;2.72;2.00;;;7.20;99.90;;;6.54;100.00;96552.69;5014283;28;20033;-38
2023/04/25 04:54:04;;;;;;;4.45;1.92;;;7.20;99.90;;;6.67;100.00;96561.81;5018825;28;20091;-39
2023/04/25 04:56:31;;;;;;;3.42;2.30;;;7.30;99.90;;;6.60;100.00;96544.59;5009696;28;20095;-39
2023/04/25 04:58:59;;;;;;;3.40;2.38;;;7.30;99.90;;;6.76;100.00;96576.38;5020186;28;20241;-39
2023/04/25 05:01:26;;;;;;;3.45;2.20;;;7.40;99.90;;;6.68;100.00;96561.75;5016058;28;20030;-38
2023/04/25 05:03:52;;;;;;;3.08;2.13;;;7.40;99.90;;;6.79;100.00;96582.34;5007956;28;20029;-40
2023/04/25 05:06:21;;;;;;;2.70;1.90;;;7.40;99.90;;;6.79;100.00;96587.59;5015497;28;20076;-40
2023/04/25 05:08:47;;;;;;;4.22;1.88;;;7.40;99.90;;;6.78;100.00;96578.00;5007335;28;20060;-40
2023/04/25 05:11:12;;;;;;;2.80;1.83;;;7.40;99.90;;;6.83;100.00;96580.47;5022076;28;20166;-41
2023/04/25 05:13:38;;;;;;;3.63;2.30;;;7.50;99.90;;;6.88;100.00;96581.19;5028151;28;20393;-40
2023/04/25 05:21:09;;;;;;;4.57;2.42;;;7.60;99.90;;;7.06;100.00;96577.91;4999219;28;20049;-41
2023/04/25 05:23:34;;;;;;;4.70;2.00;;;7.70;99.90;;;7.14;100.00;96575.03;5027679;28;20116;-44
2023/04/25 05:26:00;;;;;;;2.78;2.17;;;7.80;99.90;;;7.32;100.00;96576.09;5036461;28;20059;-39
2023/04/25 05:28:26;;;;;;;5.00;2.60;;;7.90;99.90;;;7.45;100.00;96584.38;5033190;28;20088;-37
2023/04/25 05:30:52;;;;;;;4.13;2.42;;;8.00;99.90;;;7.43;100.00;96587.03;5031133;28;20692;-41
2023/04/25 05:33:18;;;;;;;9.07;2.60;;;8.10;99.90;;;7.42;100.00;96589.72;5051849;22;20071;-39
2023/04/25 05:35:44;;;;;;;5.53;2.33;;;8.10;99.90;;;7.28;100.00;96566.63;5034995;28;20033;-39
2023/04/25 05:38:10;;;;;;;4.93;2.05;;;8.10;99.90;;;7.45;100.00;96587.84;5038463;28;20431;-40
2023/04/25 05:40:36;;;;;;;2.80;2.15;;;8.10;99.90;;;7.47;100.00;96585.16;5036664;28;20034;-38
2023/04/25 05:43:02;;;;;;;2.80;2.38;;;8.10;99.90;;;7.51;100.00;96588.53;5035638;28;20025;-39
2023/04/25 05:45:28;;;;;;;6.43;2.53;;;8.10;99.90;;;7.48;100.00;96588.63;5024604;28;20056;-40
2023/04/25 05:47:54;;;;;;;5.68;2.20;;;8.20;99.90;;;7.49;100.00;96577.25;5027842;28;20036;-39
2023/04/25 05:50:19;;;;;;;2.85;2.33;;;8.10;99.90;;;7.55;100.00;96582.25;5028596;28;20041;-40
2023/04/25 05:52:45;;;;;;;4.32;2.42;;;8.20;99.90;;;7.57;100.00;96575.16;5027904;28;20048;-40
2023/04/25 05:55:11;;;;;;;4.47;2.75;;;8.20;99.90;;;7.67;100.00;96580.94;5037689;28;20034;-40
2023/04/25 05:57:36;;;;;;;2.90;2.15;;;8.30;99.90;;;7.75;100.00;96584.97;5039138;28;20033;-40
2023/04/25 06:00:03;;;;;;;2.75;2.30;;;8.30;99.90;;;7.75;100.00;96590.22;5042742;28;20389;-40
2023/04/25 06:02:29;;;;;;;2.80;1.90;;;8.30;99.90;;;7.73;100.00;96597.28;5036737;28;20041;-39
2023/04/25 06:04:55;;;;;;;2.33;1.90;;;8.30;99.90;;;7.64;100.00;96592.38;5038008;28;20039;-40
2023/04/25 06:07:21;;;;;;;2.70;1.88;;;8.30;99.90;;;7.65;100.00;96600.19;5038415;28;20061;-40
2023/04/25 06:09:46;;;;;;;2.88;1.95;;;8.30;99.90;;;7.55;100.00;96596.22;5039681;28;20475;-40
2023/04/25 06:12:12;;;;;;;4.47;1.83;;;8.20;99.90;;;7.52;100.00;96601.59;5041529;28;20503;-39
2023/04/25 06:14:38;;;;;;;2.22;1.85;;;8.20;99.90;;;7.57;100.00;96596.16;5036842;28;20504;-38
2023/04/25 06:17:08;;;;;;;2.30;1.80;;;8.20;99.90;;;7.69;100.00;96594.84;5040012;28;20033;-40
2023/04/25 06:19:35;;;;;;;2.50;1.88;;;8.30;99.90;;;7.78;100.00;96594.47;5036715;28;20461;-39
2023/04/25 06:22:01;;;;;;;2.40;1.90;;;8.30;99.90;;;7.86;100.00;96595.06;5039241;28;20160;-38
2023/04/25 06:24:27;;;;;;;3.60;2.45;;;8.50;99.90;;;7.93;100.00;96590.41;5034255;28;20045;-39
2023/04/25 06:26:54;;;;;;;3.58;2.25;;;8.50;99.90;;;7.93;100.00;96572.03;5035664;28;20044;-39
2023/04/25 06:29:20;;;;;;;3.45;1.90;;;8.60;99.90;;;8.06;100.00;96583.75;5041511;28;20459;-38
2023/04/25 06:31:45;;;;;;;2.70;1.80;;;8.70;99.90;;;8.22;100.00;96576.97;5039113;28;20037;-38
2023/04/25 06:34:11;;;;;;;2.63;1.92;;;8.80;99.90;;;8.32;100.00;96573.97;5039990;28;20043;-39
2023/04/25 06:36:37;;;;;;;2.70;1.70;;;8.90;99.90;;;8.45;100.00;96579.59;5036774;28;20029;-37
2023/04/25 06:39:02;;;;;;;4.25;1.70;;;9.10;99.90;;;8.66;100.00;96578.69;5038659;28;20356;-38
2023/04/25 06:41:28;;;;;;;2.75;1.90;;;9.20;99.90;;;8.82;100.00;96581.53;5040961;28;20120;-38
2023/04/25 06:43:54;;;;;;;1.95;1.70;;;9.40;99.90;;;8.89;100.00;96584.75;5038237;28;20044;-37
2023/04/25 06:46:20;;;;;;;3.35;2.10;;;9.50;99.90;;;8.90;100.00;96568.91;5041197;28;20063;-38
2023/04/25 06:48:45;;;;;;;2.85;2.00;;;9.60;99.90;;;9.01;100.00;96588.59;5038350;28;20052;-38
2023/04/25 06:51:13;;;;;;;3.55;2.10;;;9.60;99.90;;;9.07;100.00;96593.63;5038888;28;20044;-37
2023/04/25 06:53:39;;;;;;;2.55;2.00;;;9.60;99.90;;;9.12;100.00;96589.00;5037223;28;20388;-37
2023/04/25 06:56:05;;;;;;;4.60;2.42;;;9.70;99.90;;;9.07;100.00;96588.34;5040353;28;20027;-37
2023/04/25 06:58:31;;;;;;;2.70;1.90;;;9.60;99.90;;;9.07;100.00;96588.34;5038829;28;20037;-38
2023/04/25 07:00:57;;;;;;;3.42;2.30;;;9.60;99.90;;;8.91;100.00;96577.66;5038679;28;20098;-37
2023/04/25 07:03:23;;;;;;;2.95;2.28;;;9.50;99.90;;;8.86;100.00;96583.09;5038959;28;20041;-38
2023/04/25 07:05:50;;;;;;;5.88;2.83;;;9.50;99.90;;;8.66;100.00;96583.94;5039293;28;20043;-37
2023/04/25 07:08:15;;;;;;;4.32;2.72;;;9.30;99.90;;;8.61;100.00;96591.16;5039841;28;20435;-37
2023/04/25 07:10:41;;;;;;;5.15;2.65;;;9.30;99.90;;;8.47;100.00;96581.25;5038529;28;20025;-38
2023/04/25 07:13:07;;;;;;;4.68;3.10;;;9.20;99.90;;;8.39;100.00;96594.66;5038876;28;20029;-37
2023/04/25 07:15:33;;;;;;;4.45;3.03;;;9.10;99.90;;;8.33;100.00;96586.19;5037284;28;20021;-37
2023/04/25 07:17:59;;;;;;;4.10;2.60;;;9.00;99.90;;;8.43;100.00;96597.19;5040684;28;20219;-37
2023/04/25 07:20:24;;;;;;;5.43;3.00;;;9.00;99.90;;;8.39;100.00;96593.81;5038286;28;20450;-37
2023/04/25 07:22:50;;;;;;;2.58;2.13;;;9.00;99.90;;;8.48;100.00;96595.25;5040849;28;20118;-37
2023/04/25 07:25:17;;;;;;;3.60;2.40;;;9.00;99.90;;;8.45;100.00;96598.81;5036495;28;20033;-37
2023/04/25 07:27:42;;;;;;;3.85;2.90;;;9.00;99.90;;;8.38;100.00;96602.59;5039021;28;20514;-37
2023/04/25 07:30:09;;;;;;;5.38;3.03;;;9.00;99.90;;;8.32;100.00;96605.47;5038271;28;20152;-37
2023/04/25 07:32:34;;;;;;;3.72;2.72;;;8.90;99.90;;;8.14;100.00;96596.56;5039830;28;20250;-37
2023/04/25 07:35:01;;;;;;;4.82;2.70;;;8.80;99.90;;;8.02;100.00;96596.16;5036529;28;20557;-37
2023/04/25 07:37:27;;;;;;;3.42;2.67;;;8.80;99.90;;;7.94;100.00;96610.50;5036999;28;23314;-38
2023/04/25 07:39:53;;;;;;;5.00;2.92;;;8.60;99.90;;;7.89;100.00;96609.81;5031539;28;20029;-37
2023/04/25 07:42:18;;;;;;;4.80;3.10;;;8.60;99.90;;;7.87;100.00;96609.03;5037603;28;20480;-37
2023/04/25 07:44:44;;;;;;;4.97;3.33;;;8.50;99.90;;;7.89;100.00;96617.69;5036701;28;20048;-37
2023/04/25 07:47:10;;;;;;;3.58;2.75;;;8.50;99.90;;;7.83;100.00;96616.16;5040343;28;20488;-37
2023/04/25 07:49:37;;;;;;;4.45;3.13;;;8.40;99.90;;;7.68;100.00;96622.88;5033427;28;20057;-37
2023/04/25 07:52:05;;;;;;;3.28;2.90;;;8.30;99.90;;;7.56;100.00;96608.44;5031204;28;20272;-37
2023/04/25 07:54:30;;;;;;;4.70;2.97;;;8.20;99.90;;;7.58;100.00;96624.97;5038644;28;20060;-38
2023/04/25 07:56:56;;;;;;;5.45;3.15;;;8.20;99.90;;;7.45;100.00;96631.59;5039389;28;20035;-37
2023/04/25 07:59:22;;;;;;;4.72;3.10;;;8.10;99.90;;;7.44;100.00;96629.88;5041532;28;20495;-37
2023/04/25 08:01:48;;;;;;;3.67;2.42;;;8.10;99.90;;;7.50;100.00;96628.78;5036295;28;20737;-38
2023/04/25 08:04:14;;;;;;;6.65;3.40;;;8.10;99.90;;;7.49;100.00;96637.59;5038636;28;20359;-37
2023/04/25 08:06:40;;;;;;;7.10;3.30;;;8.10;99.90;;;7.42;100.00;96622.03;5035876;28;20036;-37
2023/04/25 08:09:06;;;;;;;4.45;3.30;;;8.10;99.90;;;7.52;100.00;96633.06;5039114;28;20036;-38
2023/04/25 08:11:32;;;;;;;5.97;3.35;;;8.10;99.90;;;7.63;100.00;96641.41;5037652;28;20025;-37
2023/04/25 08:13:57;;;;;;;7.00;3.20;;;8.20;99.90;;;7.73;100.00;96638.41;5036431;28;20241;-37
2023/04/25 08:16:23;;;;;;;4.50;3.17;;;8.30;99.90;;;7.79;100.00;96641.69;5039670;28;20025;-37
2023/04/25 08:18:50;;;;;;;4.82;3.70;;;8.40;99.90;;;7.90;100.00;96653.53;5037309;28;20454;-38
2023/04/25 08:21:16;;;;;;;4.88;3.30;;;8.50;99.90;;;7.95;100.00;96649.81;5036635;28;20443;-37
2023/04/25 08:23:41;;;;;;;5.05;3.40;;;8.60;99.90;;;7.99;100.00;96656.66;5035041;28;20464;-37
2023/04/25 08:26:07;;;;;;;5.57;3.70;;;8.60;99.90;;;8.01;100.00;96649.56;5033670;28;20044;-37
2023/04/25 08:28:33;;;;;;;8.30;3.42;;;8.60;99.90;;;8.04;100.00;96653.88;5036935;28;20033;-38
2023/04/25 08:30:59;;;;;;;4.95;3.22;;;8.60;99.90;;;7.88;100.00;96668.47;5034953;28;20032;-37
2023/04/25 08:33:25;;;;;;;6.43;2.92;;;8.60;99.90;;;7.76;100.00;96659.31;5038832;28;20064;-37
2023/04/25 08:35:51;;;;;;;3.88;3.10;;;8.50;99.90;;;7.77;100.00;96677.63;5036808;28;20033;-37
2023/04/25 08:38:18;;;;;;;4.78;3.00;;;8.40;99.90;;;7.72;100.00;96662.97;5037328;28;20087;-38
2023/04/25 08:40:44;;;;;;;4.22;2.97;;;8.40;99.90;;;7.86;100.00;96678.19;5036563;28;20475;-38
2023/04/25 08:43:14;;;;;;;4.25;3.10;;;8.40;99.90;;;8.00;100.00;96675.88;5039041;28;20452;-38
2023/04/25 08:45:42;;;;;;;4.10;3.47;;;8.60;99.90;;;8.10;100.00;96679.88;5031564;28;20033;-38
2023/04/25 08:48:13;;;;;;;5.32;3.80;;;8.70;99.90;;;8.24;100.00;96676.72;5034033;28;20025;-37
2023/04/25 08:51:01;;;;;;;4.75;3.33;;;8.80;99.90;;;8.27;100.00;96687.09;5032172;28;20533;-37
2023/04/25 08:53:32;;;;;;;6.72;3.47;;;8.90;99.90;;;8.17;100.00;96683.13;5038457;28;20037;-37
2023/04/25 08:56:01;;;;;;;4.38;3.30;;;8.80;99.90;;;8.12;100.00;96687.72;5038301;28;20033;-37
2023/04/25 08:58:28;;;;;;;3.97;2.80;;;8.70;99.90;;;8.11;100.00;96693.84;5040063;28;20122;-38
2023/04/25 09:00:53;;;;;;;4.90;2.90;;;8.70;99.90;;;8.07;100.00;96695.75;5034071;28;20464;-38
2023/04/25 09:03:19;;;;;;;5.07;3.15;;;8.60;99.90;;;8.03;100.00;96696.78;5039232;28;20928;-38
2023/04/25 09:05:45;;;;;;;4.30;3.15;;;8.60;99.90;;;7.88;100.00;96685.09;5037618;28;20040;-38
2023/04/25 09:08:11;;;;;;;4.63;3.22;;;8.60;99.90;;;7.89;100.00;96699.06;5038169;28;20037;-37
2023/04/25 09:10:37;;;;;;;8.50;3.50;;;8.60;99.90;;;7.90;100.00;96713.94;5033601;28;20029;-37
2023/04/25 09:13:10;;;;;;;4.10;3.13;;;8.60;99.90;;;7.98;100.00;96714.47;5035551;28;20060;-38
2023/04/25 09:15:53;;;;;;;3.85;3.08;;;8.60;99.90;;;7.91;100.00;96713.00;5034474;28;20025;-37
2023/04/25 09:18:26;;;;;;;6.63;3.58;;;8.60;99.90;;;7.93;100.00;96719.03;5037813;28;20029;-37
2023/04/25 09:20:57;;;;;;;5.00;2.97;;;8.60;99.90;;;7.89;100.00;96720.06;5034073;28;20681;-37
2023/04/25 09:23:23;;;;;;;6.38;3.03;;;8.60;99.90;;;7.84;100.00;96715.88;5040653;28;20119;-37
2023/04/25 09:25:53;;;;;;;5.43;3.60;;;8.50;99.90;;;7.80;100.00;96722.13;5041367;28;20067;-37
2023/04/25 09:28:27;;;;;;;6.18;3.30;;;8.50;99.90;;;7.77;100.00;96735.38;5040857;28;20025;-37
2023/04/25 09:30:57;;;;;;;6.93;3.40;;;8.40;99.90;;;7.77;100.00;96739.75;5036697;28;20088;-37
2023/04/25 09:33:34;;;;;;;4.43;3.60;;;8.50;99.90;;;7.82;100.00;96732.56;5040524;28;20116;-37
2023/04/25 09:36:11;;;;;;;4.53;2.92;;;8.50;99.90;;;7.83;100.00;96729.88;5041553;28;20143;-37
2023/04/25 09:38:45;;;;;;;4.93;2.95;;;8.60;99.90;;;7.92;100.00;96754.94;5038244;28;20127;-38
2023/04/25 09:41:11;;;;;;;5.65;3.15;;;8.60;99.90;;;7.91;100.00;96739.25;5040310;28;20029;-37
2023/04/25 09:43:38;;;;;;;4.15;3.17;;;8.60;99.90;;;7.99;100.00;96755.59;5039544;28;20029;-38
2023/04/25 09:46:09;;;;;;;5.70;3.28;;;8.70;99.90;;;7.81;100.00;96725.63;5039601;28;20037;-37
2023/04/25 09:48:36;;;;;;;5.10;3.20;;;8.70;99.90;;;7.97;100.00;96753.03;5036465;28;20089;-38
2023/04/25 09:51:15;;;;;;;3.53;2.38;;;8.70;99.90;;;8.03;100.00;96762.44;5036291;28;20388;-38
2023/04/25 09:53:44;;;;;;;3.58;2.75;;;8.70;99.90;;;8.06;100.00;96766.69;5034153;28;20048;-37
2023/04/25 09:56:13;;;;;;;3.72;3.05;;;8.70;99.90;;;7.90;100.00;96769.06;5041821;28;20025;-37
2023/04/25 09:58:40;;;;;;;6.43;3.85;;;8.60;99.90;;;7.87;100.00;96770.00;5037642;28;20055;-37
2023/04/25 10:01:09;;;;;;;5.50;3.00;;;8.60;99.90;;;7.73;100.00;96780.16;5039356;28;20072;-37
2023/04/25 10:03:42;;;;;;;4.13;2.03;;;8.50;99.90;;;7.61;100.00;96778.84;5039066;28;20025;-38
2023/04/25 10:06:19;;;;;;;3.53;2.17;;;8.40;99.90;;;7.51;100.00;96783.53;5041124;28;20323;-37
2023/04/25 10:08:47;;;;;;;2.55;2.00;;;8.30;99.90;;;7.49;100.00;96789.75;5038217;28;20389;-37
2023/04/25 10:11:15;;;;;;;3.28;1.88;;;8.20;99.90;;;7.45;100.00;96779.34;5039417;28;20032;-37
2023/04/25 10:13:42;;;;;;;2.88;2.00;;;8.10;99.90;;;7.50;100.00;96794.06;5038890;28;20035;-37
2023/04/25 10:18:53;;;;;;;3.10;1.33;;;8.10;99.90;;;7.51;100.00;96803.66;5034759;28;20044;-37
2023/04/25 10:21:21;;;;;;;2.97;1.20;;;8.10;99.90;;;7.50;100.00;96805.44;5040999;28;20060;-37
2023/04/25 10:23:48;;;;;;;1.10;1.00;;;8.10;99.90;;;7.47;100.00;96820.44;5038173;28;20040;-37
2023/04/25 10:26:15;;;;;;;1.52;1.10;;;8.10;99.90;;;7.43;100.00;96820.53;5039023;28;20258;-37
2023/04/25 10:29:02;;;;;;;1.70;1.30;;;8.10;99.90;;;7.38;100.00;96819.81;5035084;28;20399;-38
2023/04/25 10:31:30;;;;;;;2.65;1.10;;;8.00;99.90;;;7.40;100.00;96820.63;5040790;28;20025;-37